Time;durP1;ratioP1;P1;durP2;ratioP2;P2;SDS_P1;SDS_P2;PMS_P1;PMS_P2;Temp;Humidity;BMP_temperature;BMP_pressure;BME280_temperature;BME280_humidity;BME280_pressure;Samples;Min_cycle;Max_cycle;Signal;HPM_P1;HPM_P2
2022/11/17 00:00:09;;;;;;;8.07;4.25;;;;;;;9.75;100.00;98526.78;4975993;28;20082;-78
2022/11/17 00:02:36;;;;;;;10.90;4.35;;;;;;;9.78;100.00;98513.31;4977830;28;20560;-80
2022/11/17 00:05:03;;;;;;;7.30;3.83;;;;;;;9.75;100.00;98521.53;4979228;28;20114;-81
2022/11/17 00:07:29;;;;;;;8.07;4.75;;;;;;;9.78;100.00;98508.09;4998286;28;20478;-80
2022/11/17 00:09:57;;;;;;;8.93;4.07;;;;;;;9.80;100.00;98498.25;5000409;28;20129;-80
2022/11/17 00:15:09;;;;;;;7.88;3.80;;;;;;;9.74;100.00;98499.03;4982089;28;20485;-80
2022/11/17 00:17:35;;;;;;;9.55;4.15;;;;;;;9.77;100.00;98496.03;4982032;28;20137;-80
2022/11/17 00:22:47;;;;;;;9.07;3.75;;;;;;;9.83;100.00;98506.47;4960113;29;20053;-81
2022/11/17 00:25:15;;;;;;;10.45;4.00;;;;;;;9.91;100.00;98479.34;4959814;28;20058;-81
2022/11/17 00:27:41;;;;;;;7.47;3.55;;;;;;;9.91;100.00;98474.91;5001908;28;20050;-81
2022/11/17 00:34:03;;;;;;;10.05;3.78;;;;;;;9.97;100.00;98468.03;5005308;28;20046;-81
2022/11/17 00:35:41;;;;;;;7.18;4.10;;;;;;;9.94;100.00;98452.78;4948818;28;20054;-81
2022/11/17 00:38:17;;;;;;;9.55;3.70;;;;;;;10.02;100.00;98449.94;5002426;28;20104;-81
2022/11/17 00:40:45;;;;;;;7.60;3.33;;;;;;;9.97;100.00;98439.31;5003011;28;20150;-81
2022/11/17 00:43:11;;;;;;;10.20;3.80;;;;;;;9.94;100.00;98440.53;5002004;28;20074;-82
2022/11/17 00:45:38;;;;;;;7.72;3.55;;;;;;;9.96;100.00;98441.13;4992305;28;20074;-82
2022/11/17 00:48:05;;;;;;;6.10;3.10;;;;;;;10.03;100.00;98425.44;4982002;28;20105;-83
2022/11/17 00:50:32;;;;;;;6.40;3.53;;;;;;;9.97;100.00;98423.63;4983002;28;20499;-82
2022/11/17 00:52:58;;;;;;;8.70;3.83;;;;;;;9.97;100.00;98413.19;4997387;28;20089;-82
2022/11/17 00:55:25;;;;;;;9.27;3.67;;;;;;;9.92;100.00;98416.41;4981926;28;20058;-81
2022/11/17 00:57:53;;;;;;;8.63;4.03;;;;;;;9.88;100.00;98411.84;4979944;28;20074;-81
2022/11/17 01:00:21;;;;;;;8.10;4.00;;;;;;;9.90;100.00;98415.03;4980874;28;20085;-81
2022/11/17 01:02:47;;;;;;;5.85;3.65;;;;;;;9.80;100.00;98409.44;4980817;28;20066;-81
2022/11/17 01:05:14;;;;;;;8.65;3.83;;;;;;;9.76;100.00;98395.19;4981243;28;20078;-81
2022/11/17 01:07:40;;;;;;;7.90;3.20;;;;;;;9.80;100.00;98406.81;4996206;28;20074;-81
2022/11/17 01:10:08;;;;;;;10.73;3.50;;;;;;;9.81;100.00;98400.59;5001585;28;20488;-81
2022/11/17 01:12:35;;;;;;;8.05;3.58;;;;;;;9.64;100.00;98380.13;4994366;28;20047;-81
2022/11/17 01:15:03;;;;;;;5.95;3.33;;;;;;;9.77;100.00;98394.16;4982783;28;20078;-80
2022/11/17 01:17:30;;;;;;;9.73;4.32;;;;;;;9.73;100.00;98392.97;4999042;28;20078;-81
2022/11/17 01:19:57;;;;;;;8.52;3.63;;;;;;;9.73;100.00;98385.13;4998071;28;20074;-81
2022/11/17 01:22:23;;;;;;;9.73;3.80;;;;;;;9.76;100.00;98387.34;4988218;28;20433;-80
2022/11/17 01:24:50;;;;;;;10.32;3.45;;;;;;;9.68;100.00;98390.19;4982364;28;20054;-81
2022/11/17 01:27:17;;;;;;;7.85;3.70;;;;;;;9.70;100.00;98385.56;4979299;28;20054;-81
2022/11/17 01:29:43;;;;;;;6.75;3.65;;;;;;;9.67;100.00;98378.94;4979317;28;20086;-81
2022/11/17 01:32:11;;;;;;;7.57;3.40;;;;;;;9.70;100.00;98385.56;4988240;28;20074;-81
2022/11/17 01:34:38;;;;;;;7.47;4.28;;;;;;;9.67;100.00;98378.13;4993314;28;20114;-81
2022/11/17 01:37:19;;;;;;;7.22;3.50;;;;;;;9.71;100.00;98364.44;4986848;28;20042;-82
2022/11/17 01:39:46;;;;;;;8.40;3.67;;;;;;;9.76;100.00;98356.00;4997563;28;20078;-82
2022/11/17 01:42:15;;;;;;;8.38;3.67;;;;;;;9.78;100.00;98354.00;4999296;28;20497;-82
2022/11/17 01:45:02;;;;;;;9.65;4.40;;;;;;;9.75;100.00;98338.72;5000204;28;20105;-82
2022/11/17 01:47:45;;;;;;;7.07;3.38;;;;;;;9.83;100.00;98351.56;5005162;28;20046;-82
2022/11/17 01:50:22;;;;;;;5.70;3.30;;;;;;;9.80;100.00;98331.88;5000068;28;20116;-82
2022/11/17 01:52:52;;;;;;;8.10;3.30;;;;;;;9.78;100.00;98314.81;4999666;28;20540;-82
2022/11/17 01:55:21;;;;;;;7.95;3.40;;;;;;;9.79;100.00;98319.84;5001911;28;20108;-81
2022/11/17 01:57:51;;;;;;;6.72;3.40;;;;;;;9.84;100.00;98317.41;5000167;28;20195;-80
2022/11/17 02:00:18;;;;;;;6.32;3.25;;;;;;;9.98;100.00;98307.69;5000556;28;20103;-81
2022/11/17 02:02:47;;;;;;;6.28;3.08;;;;;;;10.02;100.00;98318.50;4984506;28;20126;-81
2022/11/17 02:05:28;;;;;;;6.68;3.25;;;;;;;10.02;100.00;98311.47;4985184;28;20496;-81
2022/11/17 02:07:57;;;;;;;5.75;3.05;;;;;;;10.09;100.00;98314.06;4986585;28;20099;-81
2022/11/17 02:10:24;;;;;;;6.57;3.35;;;;;;;10.16;100.00;98305.19;4981747;28;20114;-81
2022/11/17 02:12:52;;;;;;;5.88;3.10;;;;;;;10.11;100.00;98299.78;4980845;28;20130;-81
2022/11/17 02:15:18;;;;;;;6.68;3.47;;;;;;;10.10;100.00;98302.59;4981865;28;20097;-80
2022/11/17 02:17:46;;;;;;;4.40;2.75;;;;;;;10.12;100.00;98293.53;4981587;28;20075;-80
2022/11/17 02:20:17;;;;;;;5.93;2.78;;;;;;;10.14;100.00;98288.09;4980572;28;20490;-80
2022/11/17 02:23:22;;;;;;;5.55;3.20;;;;;;;10.18;100.00;98282.25;4982329;28;20046;-80
2022/11/17 02:26:08;;;;;;;5.38;2.67;;;;;;;10.14;100.00;98275.84;4981188;28;20096;-80
2022/11/17 02:28:39;;;;;;;6.25;2.65;;;;;;;10.19;100.00;98278.66;4981037;28;20082;-80
2022/11/17 02:31:19;;;;;;;6.78;3.28;;;;;;;10.15;100.00;98264.38;4983543;28;20132;-80
2022/11/17 02:33:54;;;;;;;4.93;2.70;;;;;;;10.14;100.00;98273.22;4983077;28;20102;-81
2022/11/17 02:36:28;;;;;;;4.57;2.97;;;;;;;10.11;100.00;98257.97;4982180;28;20517;-81
2022/11/17 02:39:02;;;;;;;6.20;3.00;;;;;;;10.04;100.00;98254.59;4993897;28;20057;-81
2022/11/17 02:41:34;;;;;;;8.35;3.45;;;;;;;10.04;100.00;98253.78;5002070;28;20073;-80
2022/11/17 02:44:03;;;;;;;;;;;;;;;10.10;100.00;98258.97;5002489;28;20054;-81
2022/11/17 02:46:36;;;;;;;3.53;2.78;;;;;;;9.99;100.00;98238.75;4992332;28;19922;-80
2022/11/17 02:49:07;;;;;;;4.95;2.95;;;;;;;10.01;100.00;98255.00;4983632;28;20061;-80
2022/11/17 02:51:36;;;;;;;3.60;2.30;;;;;;;10.01;100.00;98234.09;4983266;28;20077;-81
2022/11/17 02:54:03;;;;;;;5.50;3.25;;;;;;;10.04;100.00;98228.47;4991933;28;20050;-81
2022/11/17 02:56:30;;;;;;;6.10;2.80;;;;;;;10.05;100.00;98230.06;4998315;28;20070;-81
2022/11/17 02:59:00;;;;;;;3.83;2.90;;;;;;;10.02;100.00;98235.72;4997517;28;20077;-81
2022/11/17 03:01:44;;;;;;;4.90;3.05;;;;;;;10.09;100.00;98228.63;4989905;28;20115;-81
2022/11/17 03:04:29;;;;;;;7.95;3.30;;;;;;;10.06;100.00;98234.28;4978791;28;20522;-81
2022/11/17 03:07:08;;;;;;;8.60;3.28;;;;;;;10.04;100.00;98223.22;4978300;28;20177;-82
2022/11/17 03:09:44;;;;;;;3.50;2.72;;;;;;;10.02;100.00;98217.41;4991578;28;20077;-81
2022/11/17 03:12:16;;;;;;;5.25;2.88;;;;;;;10.04;100.00;98207.56;4997344;28;20082;-80
2022/11/17 03:14:51;;;;;;;5.10;2.53;;;;;;;10.09;100.00;98209.53;4979227;28;20078;-81
2022/11/17 03:17:23;;;;;;;6.45;3.00;;;;;;;10.09;100.00;98212.94;4980100;28;20138;-80
2022/11/17 03:19:57;;;;;;;5.20;2.80;;;;;;;10.10;100.00;98222.41;4977863;28;20093;-81
2022/11/17 03:22:32;;;;;;;5.07;2.97;;;;;;;10.12;100.00;98209.91;4979980;28;20425;-81
2022/11/17 03:25:02;;;;;;;4.60;2.85;;;;;;;10.12;100.00;98207.31;4994653;28;20053;-81
2022/11/17 03:27:34;;;;;;;5.75;2.50;;;;;;;10.10;100.00;98191.03;4998074;28;20105;-80
2022/11/17 03:30:04;;;;;;;4.15;2.70;;;;;;;10.11;100.00;98191.84;4997944;28;20054;-80
2022/11/17 03:32:37;;;;;;;5.40;2.97;;;;;;;10.04;100.00;98196.31;4996372;28;20054;-80
2022/11/17 03:35:05;;;;;;;;;;;;;;;10.01;100.00;98176.63;4997761;28;20092;-80
2022/11/17 03:37:34;;;;;;;3.67;2.50;;;;;;;9.96;100.00;98173.84;4996760;28;20005;-80
2022/11/17 03:40:04;;;;;;;3.63;2.70;;;;;;;9.90;100.00;98177.34;4998948;28;20093;-79
2022/11/17 03:42:34;;;;;;;3.70;2.35;;;;;;;9.93;100.00;98179.50;4998582;28;20077;-80
2022/11/17 03:45:06;;;;;;;4.38;2.60;;;;;;;9.89;100.00;98183.56;5001350;28;20508;-79
2022/11/17 03:47:35;;;;;;;2.30;2.10;;;;;;;9.85;100.00;98177.97;5001397;28;20118;-80
2022/11/17 03:50:08;;;;;;;3.15;2.60;;;;;;;9.81;100.00;98176.78;5004904;28;20133;-81
2022/11/17 03:52:36;;;;;;;;;;;;;;;9.79;100.00;98157.91;5002735;28;20536;-81
2022/11/17 03:55:04;;;;;;;4.20;2.40;;;;;;;9.78;100.00;98161.53;4985197;28;19922;-81
2022/11/17 03:57:36;;;;;;;2.22;1.98;;;;;;;9.72;100.00;98166.78;4985114;28;20137;-81
2022/11/17 04:00:05;;;;;;;4.13;2.40;;;;;;;9.67;100.00;98161.38;4985206;28;20050;-81
2022/11/17 04:02:34;;;;;;;2.67;2.33;;;;;;;9.63;100.00;98153.19;4986616;28;20129;-80
2022/11/17 04:05:06;;;;;;;4.63;2.40;;;;;;;9.68;100.00;98147.31;4986944;28;20133;-81
2022/11/17 04:07:34;;;;;;;3.45;2.30;;;;;;;9.64;100.00;98137.31;5005282;28;20138;-81
2022/11/17 04:10:01;;;;;;;5.15;2.60;;;;;;;9.64;100.00;98149.56;4983620;28;20085;-79
2022/11/17 04:17:58;;;;;;;2.33;2.13;;;;;;;9.48;100.00;98145.63;4965698;29;20058;-80
2022/11/17 04:20:24;;;;;;;2.95;2.08;;;;;;;9.56;100.00;98142.78;4965093;29;20490;-80
2022/11/17 04:30:56;;;;;;;4.00;2.60;;;;;;;9.52;100.00;98135.56;5002579;28;20172;-80
2022/11/17 04:33:24;;;;;;;4.75;2.50;;;;;;;9.53;100.00;98130.13;5001656;28;20120;-80
2022/11/17 04:35:50;;;;;;;4.22;2.22;;;;;;;9.46;100.00;98129.38;5001242;28;20074;-80
2022/11/17 04:38:17;;;;;;;4.68;2.60;;;;;;;9.47;100.00;98128.34;4998924;28;20082;-80
2022/11/17 04:41:52;;;;;;;5.03;2.80;;;;;;;9.55;100.00;98129.94;4981368;28;20086;-81
2022/11/17 04:43:30;;;;;;;3.05;2.00;;;;;;;9.67;100.00;98111.78;4981036;28;20051;-80
2022/11/17 04:45:58;;;;;;;7.28;2.60;;;;;;;9.70;100.00;98112.16;4982854;28;20049;-80
2022/11/17 04:48:27;;;;;;;5.65;2.80;;;;;;;9.83;100.00;98106.06;4981634;28;20420;-80
2022/11/17 04:50:54;;;;;;;3.00;2.30;;;;;;;9.81;100.00;98103.66;4988675;28;20145;-81
2022/11/17 04:53:21;;;;;;;4.53;2.47;;;;;;;9.92;100.00;98094.34;5000205;28;20046;-81
2022/11/17 04:55:48;;;;;;;6.25;2.70;;;;;;;9.96;100.00;98096.28;4995743;28;20118;-81
2022/11/17 04:58:15;;;;;;;5.38;3.00;;;;;;;9.96;100.00;98105.94;4981114;28;20058;-81
2022/11/17 05:00:42;;;;;;;6.03;2.60;;;;;;;9.98;100.00;98090.84;4982611;28;20081;-81
2022/11/17 05:03:11;;;;;;;3.53;2.13;;;;;;;10.09;100.00;98095.38;4986293;28;20135;-80
2022/11/17 05:05:40;;;;;;;4.90;2.65;;;;;;;10.09;100.00;98097.19;4986601;28;20109;-81
2022/11/17 05:08:07;;;;;;;4.95;2.40;;;;;;;10.13;100.00;98108.81;4985540;28;20086;-81
2022/11/17 05:13:25;;;;;;;6.00;2.60;;;;;;;10.13;100.00;98111.44;5006338;28;20092;-82
2022/11/17 05:18:37;;;;;;;6.60;2.40;;;;;;;10.12;100.00;98110.63;5006118;28;20084;-81
2022/11/17 05:21:07;;;;;;;4.95;2.38;;;;;;;10.09;100.00;98099.78;5005619;28;20057;-83
2022/11/17 05:26:18;;;;;;;5.38;2.50;;;;;;;10.08;100.00;98088.56;5000763;28;20069;-79
2022/11/17 05:28:45;;;;;;;3.95;2.65;;;;;;;10.07;100.00;98102.63;5001544;28;20524;-79
2022/11/17 05:31:12;;;;;;;4.07;2.55;;;;;;;10.05;100.00;98099.44;4992623;28;20046;-81
2022/11/17 05:33:39;;;;;;;3.88;2.40;;;;;;;9.99;100.00;98100.28;4986491;28;20051;-79
2022/11/17 05:36:08;;;;;;;5.28;2.70;;;;;;;10.00;100.00;98099.25;4983555;28;20133;-80
2022/11/17 05:38:34;;;;;;;3.83;2.65;;;;;;;10.01;100.00;98102.69;4984764;28;20114;-79
2022/11/17 05:41:01;;;;;;;6.00;3.75;;;;;;;10.01;100.00;98103.47;5008109;28;20081;-80
2022/11/17 05:43:28;;;;;;;8.40;3.03;;;;;;;9.97;100.00;98104.91;5008246;28;20089;-79
2022/11/17 05:45:54;;;;;;;6.18;2.97;;;;;;;9.99;100.00;98113.34;5020384;23;20352;-79
2022/11/17 05:48:21;;;;;;;5.30;2.90;;;;;;;10.02;100.00;98115.53;5018676;28;20050;-80
2022/11/17 05:50:48;;;;;;;6.22;3.13;;;;;;;10.05;100.00;98127.38;5024418;28;20136;-80
2022/11/17 05:53:16;;;;;;;6.30;2.95;;;;;;;9.99;100.00;98121.97;5023237;28;20046;-82
2022/11/17 05:55:43;;;;;;;7.43;2.90;;;;;;;10.01;100.00;98139.25;5017994;28;20077;-81
2022/11/17 05:58:17;;;;;;;6.60;3.08;;;;;;;9.98;100.00;98136.06;5016192;28;20054;-83
2022/11/17 06:00:46;;;;;;;9.05;3.40;;;;;;;9.94;100.00;98155.78;5012757;28;20099;-83
2022/11/17 06:03:23;;;;;;;5.70;3.83;;;;;;;9.93;100.00;98155.97;5000081;28;20137;-82
2022/11/17 06:05:53;;;;;;;6.43;3.05;;;;;;;9.89;100.00;98157.44;5001853;28;20050;-82
2022/11/17 06:08:28;;;;;;;6.45;5.13;;;;;;;9.84;100.00;98157.28;5001482;28;20054;-82
2022/11/17 06:10:55;;;;;;;6.65;3.40;;;;;;;9.87;100.00;98160.25;5002467;28;20113;-81
2022/11/17 06:13:24;;;;;;;6.85;3.47;;;;;;;9.91;100.00;98173.72;5002422;28;20421;-81
2022/11/17 06:15:51;;;;;;;5.88;3.53;;;;;;;9.83;100.00;98179.19;5002112;28;20061;-81
2022/11/17 06:18:19;;;;;;;7.43;3.60;;;;;;;9.77;100.00;98180.03;5001930;28;20108;-81
2022/11/17 06:20:50;;;;;;;7.10;3.75;;;;;;;9.75;100.00;98177.63;5001666;28;20081;-80
2022/11/17 06:23:20;;;;;;;6.63;3.42;;;;;;;9.77;100.00;98187.84;5002517;28;20050;-80
2022/11/17 06:25:48;;;;;;;6.50;3.30;;;;;;;9.74;100.00;98188.28;5003560;28;20091;-80
2022/11/17 06:28:19;;;;;;;9.98;3.67;;;;;;;9.77;100.00;98185.25;5002966;28;20409;-81
2022/11/17 06:30:46;;;;;;;10.02;3.50;;;;;;;9.83;100.00;98171.34;5004082;28;20162;-82
2022/11/17 06:33:15;;;;;;;8.25;4.05;;;;;;;9.77;100.00;98172.97;5000748;28;20085;-83
2022/11/17 06:35:44;;;;;;;7.75;3.85;;;;;;;9.79;100.00;98168.34;4999862;28;20050;-81
2022/11/17 06:38:11;;;;;;;6.68;3.53;;;;;;;9.78;100.00;98168.56;4997725;28;20088;-80
2022/11/17 06:40:37;;;;;;;8.15;3.97;;;;;;;9.83;100.00;98177.38;4997573;28;20074;-81
2022/11/17 06:43:08;;;;;;;9.15;3.67;;;;;;;9.80;100.00;98171.75;4998159;28;20054;-82
2022/11/17 06:45:36;;;;;;;6.15;3.63;;;;;;;9.76;100.00;98178.41;4998236;28;20042;-82
2022/11/17 06:48:04;;;;;;;7.10;3.88;;;;;;;9.75;100.00;98176.81;4999189;28;20564;-82
2022/11/17 06:50:34;;;;;;;7.63;3.88;;;;;;;9.76;100.00;98173.19;4998971;28;20105;-82
2022/11/17 06:53:02;;;;;;;8.13;4.07;;;;;;;9.80;100.00;98175.19;4999313;28;20138;-80
2022/11/17 06:55:29;;;;;;;7.72;4.20;;;;;;;9.81;100.00;98175.97;4999621;28;20077;-82
2022/11/17 06:58:00;;;;;;;10.07;4.50;;;;;;;9.83;100.00;98176.56;5000413;28;20074;-80
2022/11/17 07:00:28;;;;;;;6.75;3.55;;;;;;;9.84;100.00;98178.16;5002424;28;20050;-80
2022/11/17 07:02:59;;;;;;;8.00;3.65;;;;;;;9.87;100.00;98175.94;5004923;28;20078;-80
2022/11/17 07:05:26;;;;;;;11.05;3.55;;;;;;;9.94;100.00;98187.13;5005198;28;20126;-81
2022/11/17 07:07:53;;;;;;;10.60;4.47;;;;;;;9.96;100.00;98181.69;5003308;28;20082;-80
2022/11/17 07:10:19;;;;;;;7.13;3.70;;;;;;;10.01;100.00;98188.88;4993355;28;20122;-82
2022/11/17 07:12:46;;;;;;;9.88;5.82;;;;;;;10.01;100.00;98186.28;4991273;28;20070;-82
2022/11/17 07:15:12;;;;;;;8.52;3.42;;;;;;;10.01;100.00;98176.63;4988195;28;20081;-80
2022/11/17 07:17:40;;;;;;;8.15;4.25;;;;;;;10.01;100.00;98181.84;4988831;28;20090;-81
2022/11/17 07:20:09;;;;;;;5.95;3.30;;;;;;;10.05;100.00;98174.41;4990508;28;20133;-81
2022/11/17 07:22:36;;;;;;;8.60;3.53;;;;;;;10.05;100.00;98180.41;4990281;28;20539;-79
2022/11/17 07:25:02;;;;;;;7.90;3.53;;;;;;;10.10;100.00;98185.81;4991848;28;20108;-79
2022/11/17 07:27:30;;;;;;;8.68;3.67;;;;;;;10.08;100.00;98185.22;4987234;28;20046;-79
2022/11/17 07:29:57;;;;;;;7.07;3.15;;;;;;;10.08;100.00;98197.50;4988544;28;20058;-79
2022/11/17 07:32:24;;;;;;;11.98;6.18;;;;;;;10.09;100.00;98194.66;4989945;28;20069;-81
2022/11/17 07:34:51;;;;;;;9.43;4.05;;;;;;;10.07;100.00;98199.28;4991200;28;20049;-77
2022/11/17 07:37:19;;;;;;;8.98;4.65;;;;;;;10.08;100.00;98207.94;4983868;28;20093;-76
2022/11/17 07:39:45;;;;;;;6.75;3.65;;;;;;;10.04;100.00;98218.00;4986898;28;20145;-78
2022/11/17 07:42:12;;;;;;;5.30;2.42;;;;;;;10.23;100.00;98219.72;4998624;28;20089;-80
2022/11/17 07:44:38;;;;;;;5.05;3.28;;;;;;;10.16;100.00;98215.53;5000175;28;20061;-78
2022/11/17 07:47:05;;;;;;;6.40;1.83;;;;;;;10.15;100.00;98225.19;4997289;28;20058;-79
2022/11/17 07:49:32;;;;;;;6.70;2.25;;;;;;;10.11;100.00;98228.41;5012250;28;20081;-77
2022/11/17 07:52:00;;;;;;;6.65;2.53;;;;;;;10.09;100.00;98236.47;5020449;28;20074;-78
2022/11/17 07:54:27;;;;;;;5.03;3.08;;;;;;;10.04;100.00;98232.88;4994533;28;20510;-79
2022/11/17 07:56:54;;;;;;;3.88;2.42;;;;;;;10.04;100.00;98238.09;5009807;28;20086;-79
2022/11/17 07:59:21;;;;;;;4.97;2.70;;;;;;;10.03;100.00;98247.75;5014177;28;20118;-80
2022/11/17 08:01:47;;;;;;;2.45;1.38;;;;;;;10.10;100.00;98240.69;5010249;28;20057;-79
2022/11/17 08:04:14;;;;;;;1.35;1.23;;;;;;;10.08;100.00;98250.53;5004902;28;20529;-81
2022/11/17 08:06:41;;;;;;;3.28;0.93;;;;;;;10.18;100.00;98257.94;5003584;28;20050;-81
2022/11/17 08:09:09;;;;;;;3.10;1.25;;;;;;;10.18;100.00;98258.72;5014679;28;20120;-81
2022/11/17 08:11:36;;;;;;;3.13;1.52;;;;;;;10.19;100.00;98264.75;5026431;28;20459;-80
2022/11/17 08:14:03;;;;;;;3.85;1.40;;;;;;;10.24;100.00;98259.72;5026221;28;20054;-80
2022/11/17 08:16:30;;;;;;;3.28;1.50;;;;;;;10.29;100.00;98263.31;5014314;28;20093;-81
2022/11/17 08:18:57;;;;;;;2.38;1.38;;;;;;;10.30;100.00;98269.34;5006598;28;20603;-80
2022/11/17 08:21:24;;;;;;;3.42;1.67;;;;;;;10.30;100.00;98269.34;5006864;28;20263;-81
2022/11/17 08:23:51;;;;;;;3.47;1.63;;;;;;;10.32;100.00;98282.19;5006491;28;20081;-80
2022/11/17 08:26:20;;;;;;;3.38;1.52;;;;;;;10.37;99.76;98274.53;5006833;28;20528;-80
2022/11/17 08:28:47;;;;;;;4.25;1.75;;;;;;;10.38;99.33;98271.72;5006521;28;20093;-80
2022/11/17 08:31:14;;;;;;;4.32;2.00;;;;;;;10.44;99.33;98281.28;5007249;28;20105;-79
2022/11/17 08:33:41;;;;;;;2.35;1.58;;;;;;;10.35;99.29;98279.97;5007041;28;20157;-80
2022/11/17 08:36:08;;;;;;;3.10;1.30;;;;;;;10.41;99.81;98280.91;5005627;28;20078;-81
2022/11/17 08:38:35;;;;;;;4.65;1.52;;;;;;;10.48;99.38;98279.06;5001066;28;20609;-80
2022/11/17 08:41:04;;;;;;;1.75;1.27;;;;;;;10.46;98.79;98278.47;5001481;28;20188;-79
2022/11/17 08:43:33;;;;;;;6.95;1.73;;;;;;;10.49;98.24;98283.28;5002635;28;20133;-79
2022/11/17 08:46:01;;;;;;;3.55;1.58;;;;;;;10.50;98.61;98290.09;4999755;28;20133;-79
2022/11/17 08:48:28;;;;;;;3.00;1.30;;;;;;;10.57;98.33;98298.69;5003597;28;20121;-80
2022/11/17 08:50:55;;;;;;;4.82;1.85;;;;;;;10.61;97.13;98281.56;5001755;28;20101;-80
2022/11/17 08:53:23;;;;;;;1.80;1.48;;;;;;;10.67;97.06;98296.41;5001826;28;20076;-81
2022/11/17 08:55:50;;;;;;;23.20;7.07;;;;;;;10.77;97.14;98291.50;5001617;28;20085;-81
2022/11/17 08:58:17;;;;;;;5.15;2.45;;;;;;;10.85;96.79;98308.75;5002328;28;20068;-81
2022/11/17 09:00:46;;;;;;;5.50;2.30;;;;;;;10.95;96.68;98309.06;5005141;28;20046;-81
2022/11/17 09:03:13;;;;;;;2.85;1.75;;;;;;;10.97;96.59;98313.06;5005738;28;20042;-80
2022/11/17 09:05:41;;;;;;;3.15;2.00;;;;;;;11.11;95.09;98305.91;5006268;28;20046;-81
2022/11/17 09:08:09;;;;;;;8.23;1.58;;;;;;;11.15;94.92;98314.91;5005938;28;20058;-79
2022/11/17 09:10:37;;;;;;;3.08;1.50;;;;;;;11.33;94.48;98321.22;5005587;28;20106;-81
2022/11/17 09:13:04;;;;;;;2.67;1.35;;;;;;;11.53;93.25;98316.53;5006270;28;20082;-80
2022/11/17 09:15:31;;;;;;;1.48;1.10;;;;;;;11.56;92.66;98330.00;5005619;28;20077;-81
2022/11/17 09:18:01;;;;;;;2.15;1.63;;;;;;;11.69;91.92;98320.41;5002660;28;20061;-82
2022/11/17 09:20:30;;;;;;;5.72;1.85;;;;;;;11.85;91.74;98327.69;5005607;28;20077;-81
2022/11/17 09:23:01;;;;;;;4.82;1.52;;;;;;;11.88;88.89;98329.88;5004947;28;20157;-81
2022/11/17 09:25:28;;;;;;;6.47;1.90;;;;;;;11.87;88.66;98344.00;5006397;28;20053;-81
2022/11/17 09:27:55;;;;;;;2.38;1.23;;;;;;;11.80;88.00;98331.00;5005634;28;20054;-81
2022/11/17 09:30:22;;;;;;;3.53;1.30;;;;;;;11.68;87.28;98334.53;5004959;28;20081;-79
2022/11/17 09:32:49;;;;;;;3.55;1.17;;;;;;;11.69;85.69;98333.50;5004531;28;20076;-82
2022/11/17 09:35:17;;;;;;;3.92;1.38;;;;;;;11.70;86.65;98332.50;5006002;28;20093;-82
2022/11/17 09:37:44;;;;;;;4.15;1.77;;;;;;;11.71;86.22;98345.38;5005687;28;20054;-80
2022/11/17 09:40:16;;;;;;;2.67;0.95;;;;;;;11.86;85.95;98340.56;5005398;28;20058;-82
2022/11/17 09:42:42;;;;;;;2.13;1.38;;;;;;;12.02;85.22;98352.28;5005398;28;20054;-81
2022/11/17 09:45:15;;;;;;;2.45;1.55;;;;;;;12.13;85.44;98340.25;5005795;28;20050;-83
2022/11/17 09:47:45;;;;;;;1.67;0.90;;;;;;;12.21;84.57;98356.47;5005300;28;20125;-82
2022/11/17 09:50:22;;;;;;;4.20;1.58;;;;;;;12.33;84.21;98353.09;5004490;28;20050;-81
2022/11/17 09:52:57;;;;;;;4.57;1.33;;;;;;;12.37;83.69;98359.50;5004456;28;20054;-79
2022/11/17 09:55:29;;;;;;;1.50;0.80;;;;;;;12.39;83.66;98363.50;5000670;28;20058;-80
2022/11/17 09:58:06;;;;;;;0.77;0.77;;;;;;;12.42;83.58;98375.34;5003596;28;20057;-81
2022/11/17 10:00:35;;;;;;;2.33;1.40;;;;;;;12.48;83.04;98371.84;5004794;28;20050;-79
2022/11/17 10:03:01;;;;;;;3.40;1.00;;;;;;;12.40;83.14;98380.03;5004563;28;20054;-79
2022/11/17 10:05:32;;;;;;;2.67;1.63;;;;;;;12.30;84.17;98373.47;5004853;28;20061;-80
2022/11/17 10:08:05;;;;;;;2.70;1.40;;;;;;;12.31;83.79;98376.91;5003866;28;20070;-78
2022/11/17 10:10:37;;;;;;;3.72;1.67;;;;;;;12.23;83.45;98385.91;5004385;28;20089;-79
2022/11/17 10:13:06;;;;;;;3.28;1.13;;;;;;;12.22;84.23;98373.00;5004328;28;20050;-81
2022/11/17 10:15:41;;;;;;;5.63;1.77;;;;;;;12.12;84.10;98377.97;5004354;28;20068;-81
2022/11/17 10:18:12;;;;;;;1.17;1.08;;;;;;;12.11;83.75;98387.66;5004542;28;20057;-81
2022/11/17 10:20:40;;;;;;;3.20;1.10;;;;;;;12.04;83.49;98392.19;5005195;28;20042;-80
2022/11/17 10:23:12;;;;;;;2.90;1.30;;;;;;;12.03;82.99;98390.56;5004738;28;20141;-80
2022/11/17 10:25:41;;;;;;;3.10;1.10;;;;;;;12.00;83.59;98385.78;5003740;28;20081;-80
2022/11/17 10:28:09;;;;;;;1.55;0.90;;;;;;;11.94;83.77;98397.13;5005035;28;20081;-81
2022/11/17 10:30:36;;;;;;;2.10;1.42;;;;;;;11.96;83.72;98395.09;5005829;28;20105;-79
2022/11/17 10:33:03;;;;;;;2.75;1.30;;;;;;;11.99;83.81;98397.28;5004488;28;20520;-81
2022/11/17 10:35:32;;;;;;;2.13;1.00;;;;;;;12.03;83.42;98395.81;5007000;28;20057;-81
2022/11/17 10:38:02;;;;;;;4.82;1.40;;;;;;;12.04;84.03;98394.81;5006197;28;20100;-79
2022/11/17 10:40:31;;;;;;;3.25;1.08;;;;;;;11.99;83.18;98391.22;5007159;28;20050;-83
2022/11/17 10:43:06;;;;;;;2.95;1.38;;;;;;;11.99;83.48;98406.97;5007253;28;20086;-80
2022/11/17 10:45:33;;;;;;;5.32;1.55;;;;;;;12.02;83.65;98398.66;5006866;28;20074;-81
2022/11/17 10:48:16;;;;;;;2.42;0.95;;;;;;;11.95;82.19;98404.78;5001588;28;20121;-78
2022/11/17 10:50:52;;;;;;;3.28;0.90;;;;;;;11.94;81.39;98412.84;5007216;28;20077;-81
2022/11/17 10:53:26;;;;;;;3.33;1.10;;;;;;;11.95;81.96;98410.00;5005403;28;20079;-82
2022/11/17 10:55:56;;;;;;;6.93;1.27;;;;;;;11.96;81.85;98410.81;5004718;28;20137;-82
2022/11/17 10:58:25;;;;;;;1.35;1.08;;;;;;;12.03;81.34;98411.56;5005024;28;20050;-79
2022/11/17 11:00:54;;;;;;;1.95;1.27;;;;;;;12.08;81.22;98409.06;5007162;28;20077;-81
2022/11/17 11:03:23;;;;;;;1.52;0.80;;;;;;;12.17;81.51;98407.75;5008709;28;20045;-80
2022/11/17 11:06:02;;;;;;;2.13;0.85;;;;;;;12.22;81.00;98414.97;5011993;28;20464;-81
2022/11/17 11:08:45;;;;;;;2.92;1.35;;;;;;;12.28;81.04;98419.34;5006523;28;20050;-80
2022/11/17 11:11:20;;;;;;;2.63;1.45;;;;;;;12.28;81.51;98411.47;5011408;28;20061;-80
2022/11/17 11:13:52;;;;;;;5.25;1.92;;;;;;;12.26;81.07;98413.50;5011504;28;20061;-80
2022/11/17 11:16:18;;;;;;;4.78;1.27;;;;;;;12.28;81.76;98409.66;5008086;28;20494;-81
2022/11/17 11:18:47;;;;;;;2.25;1.50;;;;;;;12.12;80.96;98418.09;5003211;28;20050;-80
2022/11/17 11:21:20;;;;;;;2.80;1.27;;;;;;;12.09;80.28;98413.28;5004895;28;20065;-82
2022/11/17 11:23:59;;;;;;;4.68;1.95;;;;;;;12.14;80.42;98426.56;5004892;28;20046;-81
2022/11/17 11:26:40;;;;;;;3.85;1.58;;;;;;;12.13;81.23;98424.94;5003346;28;20107;-80
2022/11/17 11:29:20;;;;;;;2.50;1.30;;;;;;;12.27;80.58;98425.59;5004116;28;20476;-81
2022/11/17 11:31:58;;;;;;;2.85;1.10;;;;;;;12.30;79.56;98433.81;5005018;28;20050;-80
2022/11/17 11:34:44;;;;;;;4.90;1.77;;;;;;;12.36;79.11;98436.56;5003706;28;20050;-81
2022/11/17 11:37:13;;;;;;;2.25;1.63;;;;;;;12.37;77.60;98438.97;5003762;28;20082;-79
2022/11/17 11:39:51;;;;;;;3.90;1.38;;;;;;;12.47;78.28;98443.69;5003469;28;20051;-84
2022/11/17 11:42:34;;;;;;;3.53;1.48;;;;;;;12.50;77.04;98438.81;5003962;28;20042;-81
2022/11/17 11:45:24;;;;;;;3.70;1.45;;;;;;;12.44;76.77;98454.63;5003856;28;20050;-79
2022/11/17 11:48:21;;;;;;;5.15;1.48;;;;;;;12.48;76.67;98450.53;5023929;23;20046;-78
2022/11/17 11:50:57;;;;;;;2.35;1.70;;;;;;;12.46;76.41;98437.66;5010337;28;20045;-79
2022/11/17 11:53:36;;;;;;;3.45;1.40;;;;;;;12.46;75.99;98440.28;5013806;28;20160;-78
2022/11/17 11:56:15;;;;;;;4.30;1.23;;;;;;;12.60;75.89;98438.28;5013649;28;20053;-79
2022/11/17 11:58:47;;;;;;;2.38;1.52;;;;;;;12.74;76.08;98439.72;5011410;28;20050;-78
2022/11/17 12:01:19;;;;;;;2.28;0.90;;;;;;;12.81;76.07;98443.03;5011147;28;20137;-79
2022/11/17 12:03:49;;;;;;;4.82;1.38;;;;;;;13.03;75.31;98442.53;5011027;28;20052;-78
2022/11/17 12:06:42;;;;;;;4.63;1.30;;;;;;;13.23;74.24;98453.56;5014408;28;20132;-78
2022/11/17 12:09:55;;;;;;;3.95;1.40;;;;;;;13.19;75.01;98444.53;5013978;28;20096;-79
2022/11/17 12:12:30;;;;;;;11.35;2.60;;;;;;;13.11;75.53;98455.34;5015897;28;20056;-79
2022/11/17 12:15:10;;;;;;;3.70;1.30;;;;;;;13.02;75.91;98452.22;5014617;28;20085;-78